createdAt,value
2022-09-07T00:05:32.555Z,100896.96
2022-09-07T00:11:59.563Z,100892.57
2022-09-07T00:18:23.930Z,100883.89
2022-09-07T00:24:48.496Z,100881.10
2022-09-07T00:31:12.864Z,100871.77
2022-09-07T00:37:37.210Z,100865.47
2022-09-07T00:44:19.603Z,100868.40
2022-09-07T00:50:44.052Z,100864.00
2022-09-07T00:57:08.374Z,100867.52
2022-09-07T01:03:32.597Z,100865.14
2022-09-07T01:09:56.894Z,100863.94
2022-09-07T01:16:23.864Z,100863.49
2022-09-07T01:23:03.558Z,100862.71
2022-09-07T01:29:26.956Z,100864.29
2022-09-07T01:35:51.441Z,100859.10
2022-09-07T01:42:14.379Z,100857.27
2022-09-07T01:48:38.754Z,100856.82
2022-09-07T01:55:14.821Z,100855.17
2022-09-07T02:01:39.254Z,100855.43
2022-09-07T02:08:11.803Z,100852.16
2022-09-07T02:15:00.416Z,100854.17
2022-09-07T02:21:07.527Z,100848.60
2022-09-07T02:27:31.849Z,100847.79
2022-09-07T02:33:56.363Z,100846.05
2022-09-07T02:40:20.634Z,100845.04
2022-09-07T02:46:53.836Z,100840.75
2022-09-07T02:53:22.691Z,100838.50
2022-09-07T02:59:59.359Z,100833.64
2022-09-07T03:06:26.436Z,100832.15
2022-09-07T03:12:50.901Z,100826.77
2022-09-07T03:19:15.311Z,100821.36
2022-09-07T03:25:39.521Z,100815.18
2022-09-07T03:31:56.493Z,100818.19
2022-09-07T03:38:20.833Z,100818.91
2022-09-07T03:44:45.260Z,100819.86
2022-09-07T03:51:09.657Z,100824.95
2022-09-07T03:57:33.968Z,100825.45
2022-09-07T04:04:01.990Z,100827.92
2022-09-07T04:10:26.845Z,100826.87
2022-09-07T04:16:53.846Z,100819.76
2022-09-07T04:23:18.198Z,100820.48
2022-09-07T04:29:42.408Z,100822.59
2022-09-07T04:36:06.783Z,100829.45
2022-09-07T04:42:31.029Z,100826.09
2022-09-07T04:48:55.414Z,100829.73
2022-09-07T04:55:19.850Z,100827.04
2022-09-07T05:01:44.828Z,100826.95
2022-09-07T05:08:09.335Z,100827.04
2022-09-07T05:14:33.640Z,100832.70
2022-09-07T05:20:57.980Z,100833.30
2022-09-07T05:27:22.754Z,100829.13
2022-09-07T05:40:31.340Z,100826.36
2022-09-07T05:46:55.764Z,100830.04
2022-09-07T05:53:20.074Z,100831.09
2022-09-07T05:59:42.997Z,100834.05
2022-09-07T06:06:07.542Z,100829.33
2022-09-07T06:12:32.044Z,100825.45
2022-09-07T06:18:56.242Z,100824.86
2022-09-07T06:25:20.488Z,100827.48
2022-09-07T06:38:31.854Z,100821.95
2022-09-07T06:44:56.387Z,100822.79
2022-09-07T06:51:20.710Z,100809.29
2022-09-07T06:57:45.068Z,100802.02
2022-09-07T07:04:09.266Z,100791.70
2022-09-07T07:10:33.483Z,100804.64
2022-09-07T07:17:06.870Z,100811.55
2022-09-07T07:23:32.800Z,100808.49
2022-09-07T07:29:57.224Z,100809.80
2022-09-07T07:36:21.593Z,100826.23
2022-09-07T07:42:45.857Z,100825.84
2022-09-07T07:49:10.169Z,100836.73
2022-09-07T07:55:49.844Z,100845.02
2022-09-07T08:02:05.285Z,100839.12
2022-09-07T08:08:30.059Z,100831.26
2022-09-07T08:14:54.264Z,100819.23
2022-09-07T08:21:18.610Z,100804.93
2022-09-07T08:27:42.913Z,100798.59
2022-09-07T08:34:07.096Z,100797.22
2022-09-07T08:40:31.310Z,100790.08
2022-09-07T08:46:55.627Z,100786.23
2022-09-07T08:53:47.697Z,100783.17
2022-09-07T09:00:20.837Z,100775.65
2022-09-07T09:06:53.942Z,100771.98
2022-09-07T09:13:36.801Z,100765.98
2022-09-07T09:20:19.226Z,100759.82
2022-09-07T09:26:55.726Z,100743.88
2022-09-07T09:33:36.985Z,100745.79
2022-09-07T09:40:13.350Z,100737.84
2022-09-07T09:46:37.812Z,100735.24
2022-09-07T09:53:02.232Z,100738.19
2022-09-07T10:06:18.869Z,100724.75
2022-09-07T10:12:43.146Z,100713.87
2022-09-07T10:19:07.307Z,100703.52
2022-09-07T10:25:34.443Z,100699.19
2022-09-07T10:32:07.645Z,100699.50
2022-09-07T10:38:43.966Z,100688.25
2022-09-07T10:45:11.050Z,100683.16
2022-09-07T10:51:38.884Z,100681.48
2022-09-07T10:59:01.042Z,100678.52
2022-09-07T11:05:10.713Z,100672.66
2022-09-07T11:18:28.345Z,100678.73
2022-09-07T11:31:48.930Z,100667.92
2022-09-07T11:38:11.782Z,100661.07
2022-09-07T11:44:39.010Z,100652.47
2022-09-07T11:51:03.241Z,100649.33
2022-09-07T11:57:27.796Z,100641.80
2022-09-07T12:04:04.162Z,100641.80
2022-09-07T12:10:31.687Z,100632.28
2022-09-07T12:17:17.384Z,100625.81
2022-09-07T12:23:57.110Z,100627.56
2022-09-07T12:30:21.413Z,100628.43
2022-09-07T12:36:43.948Z,100620.83
2022-09-07T12:43:09.985Z,100618.55
2022-09-07T12:49:49.475Z,100609.92
2022-09-07T12:56:19.524Z,100605.19
2022-09-07T13:02:41.798Z,100602.56
2022-09-07T13:09:11.925Z,100600.02
2022-09-07T13:15:36.257Z,100586.23
2022-09-07T13:22:09.984Z,100573.44
2022-09-07T13:28:47.495Z,100558.73
2022-09-07T13:35:21.272Z,100553.98
2022-09-07T13:41:48.457Z,100552.52
2022-09-07T13:48:10.816Z,100550.68
2022-09-07T13:54:36.706Z,100549.23
2022-09-07T14:01:01.059Z,100554.02
2022-09-07T14:07:25.431Z,100554.65
2022-09-07T14:13:52.522Z,100544.27
2022-09-07T14:20:16.785Z,100532.39
2022-09-07T14:26:59.061Z,100530.02
2022-09-07T14:33:23.246Z,100524.02
2022-09-07T14:39:47.504Z,100520.73
2022-09-07T14:46:17.878Z,100515.27
2022-09-07T14:53:33.268Z,100512.41
2022-09-07T14:59:26.440Z,100508.05
2022-09-07T15:05:55.504Z,100505.36
2022-09-07T15:12:32.725Z,100498.07
2022-09-07T15:18:59.923Z,100487.28
2022-09-07T15:25:24.217Z,100487.45
2022-09-07T15:32:01.091Z,100485.55
2022-09-07T15:45:12.205Z,100485.46
2022-09-07T15:58:21.128Z,100491.23
2022-09-07T16:04:45.537Z,100491.72
2022-09-07T16:11:13.893Z,100490.32
2022-09-07T16:17:47.519Z,100482.19
2022-09-07T16:24:12.915Z,100478.05
2022-09-07T16:30:37.155Z,100476.37
2022-09-07T16:37:01.467Z,100476.55
2022-09-07T16:43:25.694Z,100471.02
2022-09-07T16:49:50.658Z,100469.27
2022-09-07T16:56:16.971Z,100463.81
2022-09-07T17:02:41.485Z,100462.79
2022-09-07T17:09:05.782Z,100463.80
2022-09-07T17:15:30.029Z,100458.72
2022-09-07T17:21:57.668Z,100461.31
2022-09-07T17:28:01.793Z,100461.42
2022-09-07T17:34:26.028Z,100466.48
2022-09-07T17:40:50.361Z,100467.51
2022-09-07T17:47:14.707Z,100483.00
2022-09-07T17:53:39.010Z,100485.19
2022-09-07T18:00:11.439Z,100495.34
2022-09-07T18:06:36.303Z,100489.70
2022-09-07T18:13:03.348Z,100493.25
2022-09-07T18:19:30.375Z,100499.84
2022-09-07T18:25:54.580Z,100499.36
2022-09-07T18:32:18.770Z,100498.09
2022-09-07T18:38:43.186Z,100491.77
2022-09-07T18:58:38.804Z,100489.83
2022-09-07T19:11:47.235Z,100487.45
2022-09-07T19:18:11.434Z,100486.00
2022-09-07T19:24:35.702Z,100480.99
2022-09-07T19:31:01.128Z,100471.77
2022-09-07T19:37:28.136Z,100474.77
2022-09-07T19:43:52.304Z,100476.81
2022-09-07T19:50:16.581Z,100482.36
2022-09-07T19:56:43.308Z,100491.67
2022-09-07T20:03:07.665Z,100488.27
2022-09-07T20:09:40.367Z,100491.27
2022-09-07T20:16:06.257Z,100494.15
2022-09-07T20:22:30.497Z,100496.52
2022-09-07T20:29:16.409Z,100499.35
2022-09-07T20:35:40.781Z,100496.94
2022-09-07T20:42:05.120Z,100489.40
2022-09-07T20:48:29.332Z,100487.72
2022-09-07T20:54:53.563Z,100486.33
2022-09-07T21:01:18.054Z,100483.08
2022-09-07T21:07:42.481Z,100485.89
2022-09-07T21:14:06.714Z,100490.00
2022-09-07T21:20:30.924Z,100492.70
2022-09-07T21:26:55.139Z,100493.80
2022-09-07T21:33:20.345Z,100495.40
2022-09-07T21:39:44.910Z,100499.11
2022-09-07T21:46:09.330Z,100497.44
2022-09-07T21:52:33.627Z,100505.89
2022-09-07T21:58:57.901Z,100505.91
2022-09-07T22:05:22.309Z,100500.15
2022-09-07T22:11:46.541Z,100496.81
2022-09-07T22:18:10.729Z,100493.39
2022-09-07T22:24:37.505Z,100495.70
2022-09-07T22:31:01.763Z,100495.21
2022-09-07T22:37:28.753Z,100484.71
2022-09-07T22:43:52.996Z,100481.38
2022-09-07T22:50:17.323Z,100480.73
2022-09-07T22:56:41.618Z,100476.20
2022-09-07T23:03:05.877Z,100468.84
2022-09-07T23:09:32.941Z,100460.31
2022-09-07T23:15:57.251Z,100461.95
2022-09-07T23:22:21.449Z,100458.45
2022-09-07T23:28:45.724Z,100459.57
2022-09-07T23:35:12.681Z,100463.72
2022-09-07T23:41:40.394Z,100461.09
2022-09-07T23:48:04.377Z,100463.02
2022-09-07T23:54:28.612Z,100468.86
